sensor_id;sensor_type;location;lat;lon;timestamp;P1;durP1;ratioP1;P2;durP2;ratioP2
37715;SDS011;23562;50.540;12.504;2022-07-26T00:02:15;38.22;;;25.73;;
37715;SDS011;23562;50.540;12.504;2022-07-26T00:04:41;30.77;;;25.15;;
37715;SDS011;23562;50.540;12.504;2022-07-26T00:07:06;30.98;;;25.52;;
37715;SDS011;23562;50.540;12.504;2022-07-26T00:09:31;32.65;;;26.20;;
37715;SDS011;23562;50.540;12.504;2022-07-26T00:11:57;31.33;;;24.20;;
37715;SDS011;23562;50.540;12.504;2022-07-26T00:14:22;29.35;;;23.83;;
37715;SDS011;23562;50.540;12.504;2022-07-26T00:16:47;31.58;;;24.25;;
37715;SDS011;23562;50.540;12.504;2022-07-26T00:19:13;27.63;;;24.13;;
37715;SDS011;23562;50.540;12.504;2022-07-26T00:21:38;26.63;;;23.75;;
37715;SDS011;23562;50.540;12.504;2022-07-26T00:24:04;29.37;;;23.87;;
37715;SDS011;23562;50.540;12.504;2022-07-26T00:26:30;25.60;;;22.85;;
37715;SDS011;23562;50.540;12.504;2022-07-26T00:28:55;28.90;;;24.35;;
37715;SDS011;23562;50.540;12.504;2022-07-26T00:31:22;33.00;;;24.52;;
37715;SDS011;23562;50.540;12.504;2022-07-26T00:33:47;27.73;;;24.77;;
37715;SDS011;23562;50.540;12.504;2022-07-26T00:36:13;29.37;;;24.17;;
37715;SDS011;23562;50.540;12.504;2022-07-26T00:38:38;31.55;;;25.38;;
37715;SDS011;23562;50.540;12.504;2022-07-26T00:41:04;34.75;;;25.33;;
37715;SDS011;23562;50.540;12.504;2022-07-26T00:43:30;40.50;;;26.98;;
37715;SDS011;23562;50.540;12.504;2022-07-26T00:45:56;30.55;;;26.10;;
37715;SDS011;23562;50.540;12.504;2022-07-26T00:48:21;33.65;;;26.67;;
37715;SDS011;23562;50.540;12.504;2022-07-26T00:50:46;32.50;;;26.55;;
37715;SDS011;23562;50.540;12.504;2022-07-26T00:53:12;29.98;;;25.52;;
37715;SDS011;23562;50.540;12.504;2022-07-26T00:55:37;28.88;;;24.30;;
37715;SDS011;23562;50.540;12.504;2022-07-26T00:58:03;29.25;;;24.55;;
37715;SDS011;23562;50.540;12.504;2022-07-26T01:00:30;28.02;;;24.58;;
37715;SDS011;23562;50.540;12.504;2022-07-26T01:02:56;28.90;;;24.02;;
37715;SDS011;23562;50.540;12.504;2022-07-26T01:05:24;28.90;;;24.00;;
37715;SDS011;23562;50.540;12.504;2022-07-26T01:07:49;30.25;;;24.15;;
37715;SDS011;23562;50.540;12.504;2022-07-26T01:10:15;32.10;;;24.42;;
37715;SDS011;23562;50.540;12.504;2022-07-26T01:12:41;30.37;;;25.60;;
37715;SDS011;23562;50.540;12.504;2022-07-26T01:15:07;32.83;;;26.25;;
37715;SDS011;23562;50.540;12.504;2022-07-26T01:17:34;31.60;;;25.85;;
37715;SDS011;23562;50.540;12.504;2022-07-26T01:19:59;32.50;;;25.70;;
37715;SDS011;23562;50.540;12.504;2022-07-26T01:22:24;28.10;;;24.70;;
37715;SDS011;23562;50.540;12.504;2022-07-26T01:24:50;29.38;;;25.15;;
37715;SDS011;23562;50.540;12.504;2022-07-26T01:27:15;29.10;;;25.60;;
37715;SDS011;23562;50.540;12.504;2022-07-26T01:29:41;27.58;;;23.27;;
37715;SDS011;23562;50.540;12.504;2022-07-26T01:32:07;29.73;;;26.02;;
37715;SDS011;23562;50.540;12.504;2022-07-26T01:34:32;31.02;;;25.58;;
37715;SDS011;23562;50.540;12.504;2022-07-26T01:36:58;28.48;;;25.48;;
37715;SDS011;23562;50.540;12.504;2022-07-26T01:39:23;30.65;;;24.60;;
37715;SDS011;23562;50.540;12.504;2022-07-26T01:41:48;29.25;;;24.88;;
37715;SDS011;23562;50.540;12.504;2022-07-26T01:44:14;29.60;;;24.97;;
37715;SDS011;23562;50.540;12.504;2022-07-26T01:46:39;32.67;;;24.45;;
37715;SDS011;23562;50.540;12.504;2022-07-26T01:49:04;33.80;;;25.10;;
37715;SDS011;23562;50.540;12.504;2022-07-26T01:51:31;31.90;;;25.42;;
37715;SDS011;23562;50.540;12.504;2022-07-26T01:53:56;29.40;;;24.80;;
37715;SDS011;23562;50.540;12.504;2022-07-26T01:56:22;28.17;;;22.60;;
37715;SDS011;23562;50.540;12.504;2022-07-26T01:58:47;28.47;;;22.67;;
37715;SDS011;23562;50.540;12.504;2022-07-26T02:01:12;25.83;;;21.83;;
37715;SDS011;23562;50.540;12.504;2022-07-26T02:03:38;26.43;;;21.23;;
37715;SDS011;23562;50.540;12.504;2022-07-26T02:06:04;24.03;;;20.10;;
37715;SDS011;23562;50.540;12.504;2022-07-26T02:08:29;22.58;;;19.48;;
37715;SDS011;23562;50.540;12.504;2022-07-26T02:10:54;22.83;;;17.90;;
37715;SDS011;23562;50.540;12.504;2022-07-26T02:13:29;25.60;;;17.08;;
37715;SDS011;23562;50.540;12.504;2022-07-26T02:15:57;22.33;;;18.13;;
37715;SDS011;23562;50.540;12.504;2022-07-26T02:18:24;21.00;;;18.00;;
37715;SDS011;23562;50.540;12.504;2022-07-26T02:20:50;24.20;;;17.13;;
37715;SDS011;23562;50.540;12.504;2022-07-26T02:23:15;23.05;;;17.27;;
37715;SDS011;23562;50.540;12.504;2022-07-26T02:25:40;23.03;;;17.23;;
37715;SDS011;23562;50.540;12.504;2022-07-26T02:28:06;21.43;;;16.43;;
37715;SDS011;23562;50.540;12.504;2022-07-26T02:30:31;27.98;;;18.95;;
37715;SDS011;23562;50.540;12.504;2022-07-26T02:32:57;23.10;;;17.88;;
37715;SDS011;23562;50.540;12.504;2022-07-26T02:35:22;24.43;;;16.60;;
37715;SDS011;23562;50.540;12.504;2022-07-26T02:37:47;18.40;;;16.40;;
37715;SDS011;23562;50.540;12.504;2022-07-26T02:40:12;19.60;;;14.83;;
37715;SDS011;23562;50.540;12.504;2022-07-26T02:42:38;20.10;;;14.75;;
37715;SDS011;23562;50.540;12.504;2022-07-26T02:45:03;19.17;;;13.53;;
37715;SDS011;23562;50.540;12.504;2022-07-26T02:47:29;20.63;;;13.10;;
37715;SDS011;23562;50.540;12.504;2022-07-26T02:49:55;18.33;;;12.15;;
37715;SDS011;23562;50.540;12.504;2022-07-26T02:52:20;15.33;;;11.53;;
37715;SDS011;23562;50.540;12.504;2022-07-26T02:54:45;17.10;;;10.97;;
37715;SDS011;23562;50.540;12.504;2022-07-26T02:57:11;13.60;;;10.30;;
37715;SDS011;23562;50.540;12.504;2022-07-26T02:59:38;13.70;;;9.52;;
37715;SDS011;23562;50.540;12.504;2022-07-26T03:02:03;12.75;;;8.40;;
37715;SDS011;23562;50.540;12.504;2022-07-26T03:04:28;12.73;;;8.02;;
37715;SDS011;23562;50.540;12.504;2022-07-26T03:06:54;12.82;;;7.78;;
37715;SDS011;23562;50.540;12.504;2022-07-26T03:09:19;11.30;;;7.70;;
37715;SDS011;23562;50.540;12.504;2022-07-26T03:11:44;12.67;;;7.07;;
37715;SDS011;23562;50.540;12.504;2022-07-26T03:14:09;12.63;;;7.20;;
37715;SDS011;23562;50.540;12.504;2022-07-26T03:16:35;9.43;;;6.70;;
37715;SDS011;23562;50.540;12.504;2022-07-26T03:19:00;13.07;;;7.50;;
37715;SDS011;23562;50.540;12.504;2022-07-26T03:21:26;12.25;;;7.35;;
37715;SDS011;23562;50.540;12.504;2022-07-26T03:23:52;13.40;;;7.47;;
37715;SDS011;23562;50.540;12.504;2022-07-26T03:26:17;14.55;;;7.25;;
37715;SDS011;23562;50.540;12.504;2022-07-26T03:28:42;9.95;;;7.22;;
37715;SDS011;23562;50.540;12.504;2022-07-26T03:31:08;14.70;;;7.70;;
37715;SDS011;23562;50.540;12.504;2022-07-26T03:33:34;12.38;;;7.20;;
37715;SDS011;23562;50.540;12.504;2022-07-26T03:35:59;11.37;;;7.87;;
37715;SDS011;23562;50.540;12.504;2022-07-26T03:38:24;14.70;;;8.70;;
37715;SDS011;23562;50.540;12.504;2022-07-26T03:40:50;11.32;;;8.50;;
37715;SDS011;23562;50.540;12.504;2022-07-26T03:43:15;13.00;;;8.48;;
37715;SDS011;23562;50.540;12.504;2022-07-26T03:45:41;12.32;;;8.50;;
37715;SDS011;23562;50.540;12.504;2022-07-26T03:48:06;13.10;;;8.60;;
37715;SDS011;23562;50.540;12.504;2022-07-26T03:50:32;14.45;;;8.98;;
37715;SDS011;23562;50.540;12.504;2022-07-26T03:52:57;11.93;;;8.05;;
37715;SDS011;23562;50.540;12.504;2022-07-26T03:55:22;11.70;;;8.83;;
37715;SDS011;23562;50.540;12.504;2022-07-26T03:58:06;12.25;;;8.15;;
37715;SDS011;23562;50.540;12.504;2022-07-26T04:00:31;11.90;;;7.47;;
37715;SDS011;23562;50.540;12.504;2022-07-26T04:02:56;13.27;;;8.13;;
37715;SDS011;23562;50.540;12.504;2022-07-26T04:05:21;15.20;;;8.00;;
37715;SDS011;23562;50.540;12.504;2022-07-26T04:07:47;11.48;;;7.70;;
37715;SDS011;23562;50.540;12.504;2022-07-26T04:10:12;12.73;;;7.93;;
37715;SDS011;23562;50.540;12.504;2022-07-26T04:12:39;11.50;;;7.95;;
37715;SDS011;23562;50.540;12.504;2022-07-26T04:15:05;12.18;;;7.65;;
37715;SDS011;23562;50.540;12.504;2022-07-26T04:17:38;10.40;;;7.35;;
37715;SDS011;23562;50.540;12.504;2022-07-26T04:20:04;15.23;;;7.22;;
37715;SDS011;23562;50.540;12.504;2022-07-26T04:22:31;13.68;;;7.00;;
37715;SDS011;23562;50.540;12.504;2022-07-26T04:24:58;9.88;;;6.10;;
37715;SDS011;23562;50.540;12.504;2022-07-26T04:27:23;13.50;;;7.07;;
37715;SDS011;23562;50.540;12.504;2022-07-26T04:29:49;13.90;;;6.90;;
37715;SDS011;23562;50.540;12.504;2022-07-26T04:32:14;11.20;;;6.35;;
37715;SDS011;23562;50.540;12.504;2022-07-26T04:34:39;10.20;;;6.35;;
37715;SDS011;23562;50.540;12.504;2022-07-26T04:37:04;12.27;;;6.10;;
37715;SDS011;23562;50.540;12.504;2022-07-26T04:39:30;11.43;;;6.13;;
37715;SDS011;23562;50.540;12.504;2022-07-26T04:41:55;9.33;;;5.70;;
37715;SDS011;23562;50.540;12.504;2022-07-26T04:44:20;11.87;;;5.70;;
37715;SDS011;23562;50.540;12.504;2022-07-26T04:46:45;8.23;;;5.97;;
37715;SDS011;23562;50.540;12.504;2022-07-26T04:49:11;14.77;;;6.73;;
37715;SDS011;23562;50.540;12.504;2022-07-26T04:51:37;8.40;;;5.85;;
37715;SDS011;23562;50.540;12.504;2022-07-26T04:54:03;10.88;;;6.07;;
37715;SDS011;23562;50.540;12.504;2022-07-26T04:56:28;11.07;;;5.93;;
37715;SDS011;23562;50.540;12.504;2022-07-26T04:58:53;12.17;;;6.50;;
37715;SDS011;23562;50.540;12.504;2022-07-26T05:01:18;10.97;;;6.20;;
37715;SDS011;23562;50.540;12.504;2022-07-26T05:03:44;11.00;;;6.60;;
37715;SDS011;23562;50.540;12.504;2022-07-26T05:06:09;7.37;;;5.63;;
37715;SDS011;23562;50.540;12.504;2022-07-26T05:08:34;7.88;;;6.40;;
37715;SDS011;23562;50.540;12.504;2022-07-26T05:10:59;10.80;;;6.10;;
37715;SDS011;23562;50.540;12.504;2022-07-26T05:13:25;10.35;;;5.85;;
37715;SDS011;23562;50.540;12.504;2022-07-26T05:15:50;11.10;;;6.53;;
37715;SDS011;23562;50.540;12.504;2022-07-26T05:18:15;11.10;;;6.00;;
37715;SDS011;23562;50.540;12.504;2022-07-26T05:20:41;12.30;;;6.05;;
37715;SDS011;23562;50.540;12.504;2022-07-26T05:23:06;10.23;;;5.68;;
37715;SDS011;23562;50.540;12.504;2022-07-26T05:25:31;10.25;;;6.38;;
37715;SDS011;23562;50.540;12.504;2022-07-26T05:27:57;15.63;;;6.17;;
37715;SDS011;23562;50.540;12.504;2022-07-26T05:30:22;6.95;;;5.68;;
37715;SDS011;23562;50.540;12.504;2022-07-26T05:32:47;11.48;;;5.43;;
37715;SDS011;23562;50.540;12.504;2022-07-26T05:35:13;9.43;;;5.95;;
37715;SDS011;23562;50.540;12.504;2022-07-26T05:37:39;10.32;;;5.93;;
37715;SDS011;23562;50.540;12.504;2022-07-26T05:40:04;12.25;;;5.20;;
37715;SDS011;23562;50.540;12.504;2022-07-26T05:42:30;8.23;;;5.20;;
37715;SDS011;23562;50.540;12.504;2022-07-26T05:44:55;14.48;;;5.93;;
37715;SDS011;23562;50.540;12.504;2022-07-26T05:47:21;8.93;;;5.53;;
37715;SDS011;23562;50.540;12.504;2022-07-26T05:49:46;11.90;;;5.18;;
37715;SDS011;23562;50.540;12.504;2022-07-26T05:52:11;8.80;;;5.18;;
37715;SDS011;23562;50.540;12.504;2022-07-26T05:54:37;9.65;;;5.13;;
37715;SDS011;23562;50.540;12.504;2022-07-26T05:57:02;8.27;;;4.85;;
37715;SDS011;23562;50.540;12.504;2022-07-26T05:59:27;7.18;;;4.68;;
37715;SDS011;23562;50.540;12.504;2022-07-26T06:01:53;10.70;;;5.15;;
37715;SDS011;23562;50.540;12.504;2022-07-26T06:04:20;11.35;;;5.18;;
37715;SDS011;23562;50.540;12.504;2022-07-26T06:06:46;9.93;;;5.20;;
37715;SDS011;23562;50.540;12.504;2022-07-26T06:09:12;8.27;;;5.60;;
37715;SDS011;23562;50.540;12.504;2022-07-26T06:11:37;14.03;;;5.87;;
37715;SDS011;23562;50.540;12.504;2022-07-26T06:14:02;12.07;;;5.50;;
37715;SDS011;23562;50.540;12.504;2022-07-26T06:16:27;9.57;;;4.73;;
37715;SDS011;23562;50.540;12.504;2022-07-26T06:18:52;9.80;;;5.55;;
37715;SDS011;23562;50.540;12.504;2022-07-26T06:21:18;12.50;;;5.63;;
37715;SDS011;23562;50.540;12.504;2022-07-26T06:23:43;10.17;;;5.37;;
37715;SDS011;23562;50.540;12.504;2022-07-26T06:26:08;9.53;;;5.33;;
37715;SDS011;23562;50.540;12.504;2022-07-26T06:28:33;10.20;;;5.07;;
37715;SDS011;23562;50.540;12.504;2022-07-26T06:30:59;13.00;;;5.20;;
37715;SDS011;23562;50.540;12.504;2022-07-26T06:33:24;8.02;;;4.53;;
37715;SDS011;23562;50.540;12.504;2022-07-26T06:35:49;8.90;;;4.33;;
37715;SDS011;23562;50.540;12.504;2022-07-26T06:38:15;8.70;;;4.32;;
37715;SDS011;23562;50.540;12.504;2022-07-26T06:40:40;7.63;;;4.20;;
37715;SDS011;23562;50.540;12.504;2022-07-26T06:43:05;7.47;;;3.77;;
37715;SDS011;23562;50.540;12.504;2022-07-26T06:45:31;9.27;;;4.03;;
37715;SDS011;23562;50.540;12.504;2022-07-26T06:47:57;8.20;;;3.90;;
37715;SDS011;23562;50.540;12.504;2022-07-26T06:50:23;6.72;;;4.38;;
37715;SDS011;23562;50.540;12.504;2022-07-26T06:52:48;9.05;;;4.40;;
37715;SDS011;23562;50.540;12.504;2022-07-26T06:55:13;7.88;;;3.72;;
37715;SDS011;23562;50.540;12.504;2022-07-26T06:57:39;10.40;;;3.87;;
37715;SDS011;23562;50.540;12.504;2022-07-26T07:00:05;7.50;;;3.80;;
37715;SDS011;23562;50.540;12.504;2022-07-26T07:02:31;9.20;;;4.32;;
37715;SDS011;23562;50.540;12.504;2022-07-26T07:04:57;8.68;;;3.83;;
37715;SDS011;23562;50.540;12.504;2022-07-26T07:07:22;8.67;;;3.60;;
37715;SDS011;23562;50.540;12.504;2022-07-26T07:09:48;9.07;;;3.42;;
37715;SDS011;23562;50.540;12.504;2022-07-26T07:12:14;9.95;;;3.47;;
37715;SDS011;23562;50.540;12.504;2022-07-26T07:14:39;9.50;;;3.40;;
37715;SDS011;23562;50.540;12.504;2022-07-26T07:17:05;5.50;;;3.38;;
37715;SDS011;23562;50.540;12.504;2022-07-26T07:19:33;11.40;;;3.55;;
37715;SDS011;23562;50.540;12.504;2022-07-26T07:21:59;8.23;;;3.70;;
37715;SDS011;23562;50.540;12.504;2022-07-26T07:24:24;8.10;;;3.27;;
37715;SDS011;23562;50.540;12.504;2022-07-26T07:26:49;7.72;;;3.45;;
37715;SDS011;23562;50.540;12.504;2022-07-26T07:29:14;6.87;;;3.40;;
37715;SDS011;23562;50.540;12.504;2022-07-26T07:31:41;8.15;;;3.30;;
37715;SDS011;23562;50.540;12.504;2022-07-26T07:34:07;7.22;;;3.50;;
37715;SDS011;23562;50.540;12.504;2022-07-26T07:36:32;7.38;;;3.38;;
37715;SDS011;23562;50.540;12.504;2022-07-26T07:38:57;12.18;;;3.10;;
37715;SDS011;23562;50.540;12.504;2022-07-26T07:41:23;5.00;;;3.10;;
37715;SDS011;23562;50.540;12.504;2022-07-26T07:43:48;4.33;;;2.90;;
37715;SDS011;23562;50.540;12.504;2022-07-26T07:46:13;5.20;;;2.70;;
37715;SDS011;23562;50.540;12.504;2022-07-26T07:48:39;5.80;;;2.83;;
37715;SDS011;23562;50.540;12.504;2022-07-26T07:51:07;8.68;;;2.60;;
37715;SDS011;23562;50.540;12.504;2022-07-26T07:53:32;6.45;;;2.63;;
37715;SDS011;23562;50.540;12.504;2022-07-26T07:55:58;4.70;;;2.28;;
37715;SDS011;23562;50.540;12.504;2022-07-26T07:58:23;6.25;;;2.47;;
37715;SDS011;23562;50.540;12.504;2022-07-26T08:00:49;4.97;;;2.20;;
37715;SDS011;23562;50.540;12.504;2022-07-26T08:03:14;7.53;;;2.35;;
37715;SDS011;23562;50.540;12.504;2022-07-26T08:05:40;6.93;;;2.20;;
37715;SDS011;23562;50.540;12.504;2022-07-26T08:08:05;5.55;;;2.40;;
37715;SDS011;23562;50.540;12.504;2022-07-26T08:10:31;3.70;;;2.03;;
37715;SDS011;23562;50.540;12.504;2022-07-26T08:12:56;6.20;;;2.00;;
37715;SDS011;23562;50.540;12.504;2022-07-26T08:15:21;7.20;;;2.13;;
37715;SDS011;23562;50.540;12.504;2022-07-26T08:17:47;4.13;;;2.17;;
37715;SDS011;23562;50.540;12.504;2022-07-26T08:20:15;6.25;;;1.77;;
37715;SDS011;23562;50.540;12.504;2022-07-26T08:22:41;6.33;;;2.27;;
37715;SDS011;23562;50.540;12.504;2022-07-26T08:25:06;6.82;;;2.20;;
37715;SDS011;23562;50.540;12.504;2022-07-26T08:27:32;6.25;;;2.38;;
37715;SDS011;23562;50.540;12.504;2022-07-26T08:29:57;4.50;;;2.00;;
37715;SDS011;23562;50.540;12.504;2022-07-26T08:32:22;5.37;;;2.30;;
37715;SDS011;23562;50.540;12.504;2022-07-26T08:34:48;4.70;;;2.30;;
37715;SDS011;23562;50.540;12.504;2022-07-26T08:37:13;6.53;;;2.45;;
37715;SDS011;23562;50.540;12.504;2022-07-26T08:39:38;7.57;;;2.57;;
37715;SDS011;23562;50.540;12.504;2022-07-26T08:42:03;8.45;;;2.50;;
37715;SDS011;23562;50.540;12.504;2022-07-26T08:44:41;6.30;;;2.58;;
37715;SDS011;23562;50.540;12.504;2022-07-26T08:47:09;8.18;;;2.80;;
37715;SDS011;23562;50.540;12.504;2022-07-26T08:49:41;6.45;;;2.47;;
37715;SDS011;23562;50.540;12.504;2022-07-26T08:52:08;5.43;;;2.50;;
37715;SDS011;23562;50.540;12.504;2022-07-26T08:54:34;8.00;;;2.55;;
37715;SDS011;23562;50.540;12.504;2022-07-26T08:57:00;5.18;;;2.50;;
37715;SDS011;23562;50.540;12.504;2022-07-26T08:59:25;6.28;;;2.22;;
37715;SDS011;23562;50.540;12.504;2022-07-26T09:01:54;5.88;;;2.47;;
37715;SDS011;23562;50.540;12.504;2022-07-26T09:04:23;6.72;;;2.05;;
37715;SDS011;23562;50.540;12.504;2022-07-26T09:06:59;5.45;;;2.10;;
37715;SDS011;23562;50.540;12.504;2022-07-26T09:09:26;3.47;;;1.80;;
37715;SDS011;23562;50.540;12.504;2022-07-26T09:11:52;4.32;;;1.92;;
37715;SDS011;23562;50.540;12.504;2022-07-26T09:14:19;4.55;;;2.45;;
37715;SDS011;23562;50.540;12.504;2022-07-26T09:16:58;8.98;;;2.38;;
37715;SDS011;23562;50.540;12.504;2022-07-26T09:19:24;3.90;;;2.00;;
37715;SDS011;23562;50.540;12.504;2022-07-26T09:21:50;3.35;;;1.88;;
37715;SDS011;23562;50.540;12.504;2022-07-26T09:24:32;7.40;;;2.05;;
37715;SDS011;23562;50.540;12.504;2022-07-26T09:26:58;6.97;;;2.40;;
37715;SDS011;23562;50.540;12.504;2022-07-26T09:29:24;5.07;;;1.98;;
37715;SDS011;23562;50.540;12.504;2022-07-26T09:31:52;5.25;;;1.77;;
37715;SDS011;23562;50.540;12.504;2022-07-26T09:34:33;4.05;;;2.00;;
37715;SDS011;23562;50.540;12.504;2022-07-26T09:36:58;5.93;;;1.87;;
37715;SDS011;23562;50.540;12.504;2022-07-26T09:39:23;6.77;;;1.80;;
37715;SDS011;23562;50.540;12.504;2022-07-26T09:41:49;8.43;;;1.70;;
37715;SDS011;23562;50.540;12.504;2022-07-26T09:44:24;3.92;;;1.75;;
37715;SDS011;23562;50.540;12.504;2022-07-26T09:46:51;6.00;;;1.73;;
37715;SDS011;23562;50.540;12.504;2022-07-26T09:49:21;5.22;;;1.85;;
37715;SDS011;23562;50.540;12.504;2022-07-26T09:51:49;4.55;;;2.10;;
37715;SDS011;23562;50.540;12.504;2022-07-26T09:54:30;4.43;;;1.42;;
37715;SDS011;23562;50.540;12.504;2022-07-26T09:56:59;4.40;;;1.70;;
37715;SDS011;23562;50.540;12.504;2022-07-26T09:59:25;4.10;;;1.65;;
37715;SDS011;23562;50.540;12.504;2022-07-26T10:01:53;3.47;;;1.65;;
37715;SDS011;23562;50.540;12.504;2022-07-26T10:04:19;2.78;;;1.40;;
37715;SDS011;23562;50.540;12.504;2022-07-26T10:06:45;2.67;;;1.45;;
37715;SDS011;23562;50.540;12.504;2022-07-26T10:09:11;3.08;;;1.52;;
37715;SDS011;23562;50.540;12.504;2022-07-26T10:11:41;4.85;;;1.30;;
37715;SDS011;23562;50.540;12.504;2022-07-26T10:16:57;3.45;;;1.40;;
37715;SDS011;23562;50.540;12.504;2022-07-26T10:19:38;6.80;;;1.35;;
37715;SDS011;23562;50.540;12.504;2022-07-26T10:27:41;2.80;;;1.35;;
37715;SDS011;23562;50.540;12.504;2022-07-26T10:40:57;3.00;;;1.35;;
37715;SDS011;23562;50.540;12.504;2022-07-26T10:43:26;1.40;;;1.30;;
37715;SDS011;23562;50.540;12.504;2022-07-26T10:46:21;6.32;;;1.42;;
37715;SDS011;23562;50.540;12.504;2022-07-26T10:48:56;3.83;;;1.23;;
37715;SDS011;23562;50.540;12.504;2022-07-26T10:51:32;1.65;;;1.30;;
37715;SDS011;23562;50.540;12.504;2022-07-26T10:54:09;2.22;;;1.20;;
37715;SDS011;23562;50.540;12.504;2022-07-26T10:56:36;2.63;;;1.40;;
37715;SDS011;23562;50.540;12.504;2022-07-26T10:59:01;2.72;;;1.10;;
37715;SDS011;23562;50.540;12.504;2022-07-26T11:01:32;1.20;;;1.08;;
37715;SDS011;23562;50.540;12.504;2022-07-26T11:04:05;1.63;;;1.23;;
37715;SDS011;23562;50.540;12.504;2022-07-26T11:06:43;3.63;;;1.23;;
37715;SDS011;23562;50.540;12.504;2022-07-26T11:09:09;5.28;;;1.30;;
37715;SDS011;23562;50.540;12.504;2022-07-26T11:11:36;8.45;;;1.10;;
37715;SDS011;23562;50.540;12.504;2022-07-26T11:14:05;3.33;;;1.10;;
37715;SDS011;23562;50.540;12.504;2022-07-26T11:16:41;3.65;;;1.30;;
37715;SDS011;23562;50.540;12.504;2022-07-26T11:19:12;1.90;;;1.27;;
37715;SDS011;23562;50.540;12.504;2022-07-26T11:21:39;2.63;;;1.05;;
37715;SDS011;23562;50.540;12.504;2022-07-26T11:24:05;2.78;;;1.25;;
37715;SDS011;23562;50.540;12.504;2022-07-26T11:26:31;1.85;;;1.10;;
37715;SDS011;23562;50.540;12.504;2022-07-26T11:29:05;2.25;;;1.10;;
37715;SDS011;23562;50.540;12.504;2022-07-26T11:31:39;1.93;;;1.20;;
37715;SDS011;23562;50.540;12.504;2022-07-26T11:34:07;2.60;;;1.00;;
37715;SDS011;23562;50.540;12.504;2022-07-26T11:36:41;3.25;;;1.33;;
37715;SDS011;23562;50.540;12.504;2022-07-26T11:39:11;2.90;;;1.30;;
37715;SDS011;23562;50.540;12.504;2022-07-26T11:41:39;3.53;;;1.10;;
37715;SDS011;23562;50.540;12.504;2022-07-26T11:44:15;2.70;;;1.13;;
37715;SDS011;23562;50.540;12.504;2022-07-26T11:46:42;3.13;;;1.02;;
37715;SDS011;23562;50.540;12.504;2022-07-26T11:49:12;4.88;;;1.38;;
37715;SDS011;23562;50.540;12.504;2022-07-26T11:54:18;5.32;;;1.40;;
37715;SDS011;23562;50.540;12.504;2022-07-26T11:56:52;1.55;;;1.13;;
37715;SDS011;23562;50.540;12.504;2022-07-26T11:59:20;3.15;;;1.10;;
37715;SDS011;23562;50.540;12.504;2022-07-26T12:01:47;3.90;;;1.50;;
37715;SDS011;23562;50.540;12.504;2022-07-26T12:04:19;2.47;;;1.10;;
37715;SDS011;23562;50.540;12.504;2022-07-26T12:06:46;1.73;;;1.23;;
37715;SDS011;23562;50.540;12.504;2022-07-26T12:09:26;2.28;;;1.27;;
37715;SDS011;23562;50.540;12.504;2022-07-26T12:11:52;4.90;;;1.40;;
37715;SDS011;23562;50.540;12.504;2022-07-26T12:14:23;2.42;;;1.25;;
37715;SDS011;23562;50.540;12.504;2022-07-26T12:17:09;3.28;;;1.58;;
37715;SDS011;23562;50.540;12.504;2022-07-26T12:19:38;3.67;;;1.40;;
37715;SDS011;23562;50.540;12.504;2022-07-26T12:27:04;1.70;;;1.02;;
37715;SDS011;23562;50.540;12.504;2022-07-26T12:29:29;3.03;;;1.05;;
37715;SDS011;23562;50.540;12.504;2022-07-26T12:34:34;3.97;;;1.17;;
37715;SDS011;23562;50.540;12.504;2022-07-26T12:37:10;2.55;;;1.05;;
37715;SDS011;23562;50.540;12.504;2022-07-26T12:39:38;4.80;;;1.08;;
37715;SDS011;23562;50.540;12.504;2022-07-26T12:42:20;3.05;;;1.20;;
37715;SDS011;23562;50.540;12.504;2022-07-26T12:44:45;5.13;;;1.20;;
37715;SDS011;23562;50.540;12.504;2022-07-26T12:47:11;1.70;;;1.00;;
37715;SDS011;23562;50.540;12.504;2022-07-26T12:49:36;4.20;;;1.17;;
37715;SDS011;23562;50.540;12.504;2022-07-26T12:52:01;1.73;;;1.10;;
37715;SDS011;23562;50.540;12.504;2022-07-26T12:54:26;3.50;;;1.10;;
37715;SDS011;23562;50.540;12.504;2022-07-26T12:56:52;2.37;;;1.40;;
37715;SDS011;23562;50.540;12.504;2022-07-26T12:59:17;2.97;;;1.20;;
37715;SDS011;23562;50.540;12.504;2022-07-26T13:01:42;5.17;;;1.17;;
37715;SDS011;23562;50.540;12.504;2022-07-26T13:04:07;3.80;;;1.07;;
37715;SDS011;23562;50.540;12.504;2022-07-26T13:06:33;6.50;;;1.30;;
37715;SDS011;23562;50.540;12.504;2022-07-26T13:08:58;2.90;;;1.10;;
37715;SDS011;23562;50.540;12.504;2022-07-26T13:11:24;5.28;;;1.55;;
37715;SDS011;23562;50.540;12.504;2022-07-26T13:13:49;5.45;;;1.20;;
37715;SDS011;23562;50.540;12.504;2022-07-26T13:16:15;1.85;;;1.20;;
37715;SDS011;23562;50.540;12.504;2022-07-26T13:18:40;3.15;;;1.20;;
37715;SDS011;23562;50.540;12.504;2022-07-26T13:21:05;4.70;;;1.30;;
37715;SDS011;23562;50.540;12.504;2022-07-26T13:23:31;3.22;;;1.10;;
37715;SDS011;23562;50.540;12.504;2022-07-26T13:25:56;4.20;;;1.20;;
37715;SDS011;23562;50.540;12.504;2022-07-26T13:28:21;2.83;;;1.20;;
37715;SDS011;23562;50.540;12.504;2022-07-26T13:30:46;2.33;;;1.20;;
37715;SDS011;23562;50.540;12.504;2022-07-26T13:33:12;1.45;;;1.15;;
37715;SDS011;23562;50.540;12.504;2022-07-26T13:35:37;2.37;;;1.30;;
37715;SDS011;23562;50.540;12.504;2022-07-26T13:38:03;3.65;;;1.30;;
37715;SDS011;23562;50.540;12.504;2022-07-26T13:40:28;3.45;;;1.30;;
37715;SDS011;23562;50.540;12.504;2022-07-26T13:42:54;5.40;;;1.25;;
37715;SDS011;23562;50.540;12.504;2022-07-26T13:45:19;2.40;;;1.10;;
37715;SDS011;23562;50.540;12.504;2022-07-26T13:47:44;4.38;;;1.20;;
37715;SDS011;23562;50.540;12.504;2022-07-26T13:50:10;1.40;;;1.15;;
37715;SDS011;23562;50.540;12.504;2022-07-26T13:52:35;3.20;;;1.38;;
37715;SDS011;23562;50.540;12.504;2022-07-26T13:55:00;3.08;;;1.20;;
37715;SDS011;23562;50.540;12.504;2022-07-26T13:57:25;2.83;;;1.20;;
37715;SDS011;23562;50.540;12.504;2022-07-26T13:59:51;7.10;;;1.47;;
37715;SDS011;23562;50.540;12.504;2022-07-26T14:02:16;2.67;;;1.40;;
37715;SDS011;23562;50.540;12.504;2022-07-26T14:04:41;2.83;;;1.27;;
37715;SDS011;23562;50.540;12.504;2022-07-26T14:07:07;2.15;;;1.30;;
37715;SDS011;23562;50.540;12.504;2022-07-26T14:09:32;2.40;;;1.30;;
37715;SDS011;23562;50.540;12.504;2022-07-26T14:11:57;4.68;;;1.30;;
37715;SDS011;23562;50.540;12.504;2022-07-26T14:14:23;2.13;;;1.23;;
37715;SDS011;23562;50.540;12.504;2022-07-26T14:16:48;3.13;;;1.25;;
37715;SDS011;23562;50.540;12.504;2022-07-26T14:19:13;2.65;;;1.33;;
37715;SDS011;23562;50.540;12.504;2022-07-26T14:21:39;2.20;;;1.30;;
37715;SDS011;23562;50.540;12.504;2022-07-26T14:24:05;3.38;;;1.48;;
37715;SDS011;23562;50.540;12.504;2022-07-26T14:26:31;3.78;;;1.30;;
37715;SDS011;23562;50.540;12.504;2022-07-26T14:28:56;2.72;;;1.20;;
37715;SDS011;23562;50.540;12.504;2022-07-26T14:31:22;3.33;;;1.27;;
37715;SDS011;23562;50.540;12.504;2022-07-26T14:33:47;4.30;;;1.27;;
37715;SDS011;23562;50.540;12.504;2022-07-26T14:36:12;3.53;;;1.20;;
37715;SDS011;23562;50.540;12.504;2022-07-26T14:38:38;3.03;;;1.30;;
37715;SDS011;23562;50.540;12.504;2022-07-26T14:41:05;3.33;;;1.30;;
37715;SDS011;23562;50.540;12.504;2022-07-26T14:43:30;4.35;;;1.65;;
37715;SDS011;23562;50.540;12.504;2022-07-26T14:45:56;5.13;;;1.90;;
37715;SDS011;23562;50.540;12.504;2022-07-26T14:48:21;8.27;;;2.40;;
37715;SDS011;23562;50.540;12.504;2022-07-26T14:50:46;5.95;;;2.20;;
37715;SDS011;23562;50.540;12.504;2022-07-26T14:53:12;9.80;;;2.20;;